createdAt,value
2019-02-07T00:00:13.599Z,48.00
2019-02-07T00:02:41.902Z,46.33
2019-02-07T00:05:10.195Z,46.87
2019-02-07T00:07:38.584Z,45.60
2019-02-07T00:10:10.361Z,44.87
2019-02-07T00:12:38.638Z,47.60
2019-02-07T00:15:10.951Z,47.97
2019-02-07T00:17:39.251Z,49.93
2019-02-07T00:20:11.029Z,46.57
2019-02-07T00:22:39.475Z,46.20
2019-02-07T00:25:09.669Z,44.87
2019-02-07T00:27:38.018Z,46.87
2019-02-07T00:30:15.840Z,45.50
2019-02-07T00:32:44.114Z,43.80
2019-02-07T00:35:12.395Z,46.73
2019-02-07T00:37:40.666Z,47.03
2019-02-07T00:40:17.999Z,45.97
2019-02-07T00:42:46.752Z,46.07
2019-02-07T00:45:18.287Z,46.77
2019-02-07T00:47:46.598Z,46.30
2019-02-07T00:50:17.069Z,44.23
2019-02-07T00:52:45.321Z,44.57
2019-02-07T00:55:15.137Z,43.53
2019-02-07T00:57:43.934Z,44.47
2019-02-07T01:00:21.300Z,45.57
2019-02-07T01:02:49.596Z,45.70
2019-02-07T01:05:17.867Z,48.03
2019-02-07T01:07:46.147Z,47.07
2019-02-07T01:10:20.799Z,46.43
2019-02-07T01:12:49.098Z,44.97
2019-02-07T01:15:17.436Z,45.23
2019-02-07T01:17:45.703Z,46.13
2019-02-07T01:20:16.017Z,47.07
2019-02-07T01:22:44.321Z,44.83
2019-02-07T01:25:15.665Z,44.30
2019-02-07T01:27:43.969Z,46.87
2019-02-07T01:30:15.047Z,43.33
2019-02-07T01:32:43.314Z,42.73
2019-02-07T01:35:11.587Z,40.47
2019-02-07T01:37:39.883Z,41.83
2019-02-07T01:40:13.822Z,41.13
2019-02-07T01:42:42.092Z,38.73
2019-02-07T01:45:13.531Z,39.13
2019-02-07T01:47:41.875Z,39.60
2019-02-07T01:50:12.691Z,40.53
2019-02-07T01:52:40.960Z,40.50
2019-02-07T01:55:09.599Z,39.57
2019-02-07T01:57:37.876Z,39.87
2019-02-07T02:00:11.352Z,39.97
2019-02-07T02:02:39.713Z,39.00
2019-02-07T02:05:10.029Z,42.07
2019-02-07T02:07:38.334Z,42.17
2019-02-07T02:10:16.243Z,41.43
2019-02-07T02:12:44.579Z,41.00
2019-02-07T02:15:23.719Z,42.23
2019-02-07T02:17:43.594Z,39.93
2019-02-07T02:20:14.410Z,41.77
2019-02-07T02:22:42.963Z,40.77
2019-02-07T02:25:11.994Z,40.50
2019-02-07T02:27:40.294Z,41.30
2019-02-07T02:30:11.817Z,38.90
2019-02-07T02:32:40.080Z,38.80
2019-02-07T02:35:11.397Z,39.50
2019-02-07T02:37:40.022Z,38.20
2019-02-07T02:40:09.970Z,38.93
2019-02-07T02:42:38.253Z,40.93
2019-02-07T02:45:09.774Z,38.23
2019-02-07T02:47:38.051Z,40.47
2019-02-07T02:50:09.620Z,39.03
2019-02-07T02:52:40.300Z,36.50
2019-02-07T02:55:11.356Z,35.47
2019-02-07T02:57:39.612Z,34.33
2019-02-07T03:00:12.784Z,33.63
2019-02-07T03:02:58.784Z,34.90
2019-02-07T03:05:43.844Z,38.37
2019-02-07T03:08:30.400Z,36.40
2019-02-07T03:11:00.572Z,36.03
2019-02-07T03:13:30.478Z,37.60
2019-02-07T03:16:16.776Z,36.53
2019-02-07T03:19:02.574Z,38.47
2019-02-07T03:21:32.497Z,38.20
2019-02-07T03:24:08.475Z,38.17
2019-02-07T03:26:41.267Z,36.70
2019-02-07T03:29:27.323Z,37.87
2019-02-07T03:31:59.803Z,35.73
2019-02-07T03:34:29.713Z,35.53
2019-02-07T03:37:05.383Z,33.83
2019-02-07T03:39:50.298Z,35.23
2019-02-07T03:42:36.196Z,38.33
2019-02-07T03:45:10.819Z,38.90
2019-02-07T03:47:41.128Z,37.53
2019-02-07T03:50:16.917Z,38.50
2019-02-07T03:52:55.826Z,36.20
2019-02-07T03:55:28.644Z,38.13
2019-02-07T03:58:01.686Z,39.50
2019-02-07T04:00:34.520Z,37.47
2019-02-07T04:03:16.752Z,37.03
2019-02-07T04:05:46.655Z,38.27
2019-02-07T04:08:32.935Z,38.03
2019-02-07T04:11:02.842Z,40.27
2019-02-07T04:13:50.485Z,39.57
2019-02-07T04:16:20.772Z,40.57
2019-02-07T04:19:08.783Z,37.90
2019-02-07T04:21:41.750Z,42.87
2019-02-07T04:24:11.704Z,41.67
2019-02-07T04:26:58.216Z,43.63
2019-02-07T04:29:46.703Z,41.80
2019-02-07T04:32:19.374Z,40.70
2019-02-07T04:34:55.096Z,40.73
2019-02-07T04:37:27.284Z,38.63
2019-02-07T04:40:13.349Z,38.10
2019-02-07T04:42:43.646Z,34.90
2019-02-07T04:45:25.347Z,36.10
2019-02-07T04:47:55.269Z,37.17
2019-02-07T04:50:25.180Z,37.27
2019-02-07T04:52:55.142Z,37.73
2019-02-07T04:55:34.235Z,37.63
2019-02-07T04:58:09.876Z,34.90
2019-02-07T05:00:48.430Z,38.90
2019-02-07T05:03:18.405Z,39.57
2019-02-07T05:05:48.366Z,42.27
2019-02-07T05:08:30.247Z,38.57
2019-02-07T05:11:02.873Z,37.50
2019-02-07T05:13:50.620Z,37.37
2019-02-07T05:16:39.766Z,37.33
2019-02-07T05:19:04.354Z,36.53
2019-02-07T05:21:49.650Z,36.17
2019-02-07T05:24:22.386Z,36.67
2019-02-07T05:27:04.280Z,32.50
2019-02-07T05:29:40.204Z,32.93
2019-02-07T05:32:12.923Z,35.03
2019-02-07T05:34:45.678Z,35.63
2019-02-07T05:37:31.626Z,34.33
2019-02-07T05:40:01.547Z,33.63
2019-02-07T05:42:37.202Z,33.53
2019-02-07T05:45:26.152Z,33.93
2019-02-07T05:48:12.354Z,34.07
2019-02-07T05:50:42.375Z,34.03
2019-02-07T05:53:15.021Z,35.30
2019-02-07T05:55:56.821Z,32.90
2019-02-07T05:58:35.758Z,34.93
2019-02-07T06:01:21.815Z,35.43
2019-02-07T06:04:00.564Z,34.20
2019-02-07T06:06:45.539Z,33.37
2019-02-07T06:09:15.529Z,33.87
2019-02-07T06:11:48.524Z,36.80
2019-02-07T06:14:36.707Z,41.27
2019-02-07T06:17:18.260Z,35.40
2019-02-07T06:19:50.893Z,34.70
2019-02-07T06:22:32.835Z,38.20
2019-02-07T06:25:02.955Z,35.17
2019-02-07T06:27:48.210Z,35.73
2019-02-07T06:30:35.021Z,36.27
2019-02-07T06:33:05.012Z,31.93
2019-02-07T06:35:37.466Z,35.03
2019-02-07T06:38:13.357Z,33.33
2019-02-07T06:40:43.289Z,34.47
2019-02-07T06:43:27.946Z,33.10
2019-02-07T06:46:14.261Z,34.10
2019-02-07T06:49:00.072Z,34.13
2019-02-07T06:51:48.360Z,35.17
2019-02-07T06:54:36.378Z,35.27
2019-02-07T06:57:06.555Z,36.13
2019-02-07T06:59:36.487Z,31.23
2019-02-07T07:02:06.422Z,32.90
2019-02-07T07:04:51.438Z,32.13
2019-02-07T07:07:37.391Z,32.57
2019-02-07T07:10:16.416Z,34.07
2019-02-07T07:12:52.126Z,32.30
2019-02-07T07:15:22.041Z,32.63
2019-02-07T07:18:07.720Z,32.53
2019-02-07T07:20:53.593Z,32.77
2019-02-07T07:23:35.554Z,31.87
2019-02-07T07:26:21.541Z,32.50
2019-02-07T07:29:09.414Z,34.10
2019-02-07T07:31:39.361Z,34.20
2019-02-07T07:34:09.390Z,35.40
2019-02-07T07:36:55.529Z,34.47
2019-02-07T07:39:41.385Z,36.77
2019-02-07T07:42:17.514Z,34.23
2019-02-07T07:44:53.383Z,34.40
2019-02-07T07:47:38.352Z,36.90
2019-02-07T07:50:14.098Z,36.63
2019-02-07T07:52:47.017Z,37.37
2019-02-07T07:55:16.950Z,37.00
2019-02-07T07:57:46.855Z,35.50
2019-02-07T08:00:22.537Z,36.77
2019-02-07T08:03:01.324Z,35.97
2019-02-07T08:05:43.573Z,36.37
2019-02-07T08:08:17.044Z,36.20
2019-02-07T08:10:46.948Z,36.17
2019-02-07T08:13:32.172Z,35.17
2019-02-07T08:16:18.478Z,33.57
2019-02-07T08:18:54.149Z,37.93
2019-02-07T08:21:24.089Z,37.03
2019-02-07T08:23:56.707Z,34.70
2019-02-07T08:26:38.472Z,34.73
2019-02-07T08:29:14.104Z,32.73
2019-02-07T08:31:46.719Z,34.00
2019-02-07T08:34:22.710Z,34.17
2019-02-07T08:37:01.617Z,33.80
2019-02-07T08:39:47.755Z,34.13
2019-02-07T08:42:20.751Z,33.83
2019-02-07T08:44:56.680Z,33.27
2019-02-07T08:47:35.830Z,35.23
2019-02-07T08:50:16.037Z,35.60
2019-02-07T08:53:01.213Z,35.80
2019-02-07T08:55:31.146Z,37.10
2019-02-07T08:58:25.194Z,36.50
2019-02-07T09:01:13.266Z,35.83
2019-02-07T09:03:52.032Z,34.57
2019-02-07T09:06:36.931Z,34.07
2019-02-07T09:09:24.922Z,34.73
2019-02-07T09:11:54.832Z,34.00
2019-02-07T09:14:24.730Z,34.20
2019-02-07T09:16:54.647Z,35.50
2019-02-07T09:19:40.416Z,34.23
2019-02-07T09:22:19.689Z,35.63
2019-02-07T09:24:55.435Z,34.33
2019-02-07T09:27:30.903Z,34.23
2019-02-07T09:30:12.843Z,34.33
2019-02-07T09:32:57.608Z,33.17
2019-02-07T09:35:36.583Z,33.07
2019-02-07T09:38:06.643Z,33.07
2019-02-07T09:40:36.595Z,34.03
2019-02-07T09:43:15.393Z,33.27
2019-02-07T09:46:03.803Z,34.33
2019-02-07T09:48:42.567Z,34.23
2019-02-07T09:51:15.210Z,31.83
2019-02-07T09:53:45.488Z,34.30
2019-02-07T09:56:15.387Z,31.77
2019-02-07T09:58:45.296Z,32.93
2019-02-07T10:01:17.978Z,32.93
2019-02-07T10:03:57.086Z,33.57
2019-02-07T10:06:27.064Z,33.20
2019-02-07T10:09:01.259Z,32.30
2019-02-07T10:11:33.933Z,33.17
2019-02-07T10:14:03.984Z,32.23
2019-02-07T10:16:33.951Z,34.50
2019-02-07T10:19:07.052Z,33.53
2019-02-07T10:21:37.013Z,35.73
2019-02-07T10:24:12.895Z,33.40
2019-02-07T10:26:45.601Z,33.53
2019-02-07T10:29:21.407Z,32.40
2019-02-07T10:31:51.372Z,32.23
2019-02-07T10:34:33.093Z,31.93
2019-02-07T10:37:18.144Z,32.90
2019-02-07T10:40:02.984Z,32.23
2019-02-07T10:42:41.863Z,31.90
2019-02-07T10:45:31.455Z,31.83
2019-02-07T10:48:19.711Z,32.90
2019-02-07T10:50:52.659Z,33.80
2019-02-07T10:53:22.587Z,31.80
2019-02-07T10:56:10.391Z,32.70
2019-02-07T10:58:49.162Z,34.03
2019-02-07T11:01:28.383Z,30.87
2019-02-07T11:03:58.270Z,33.63
2019-02-07T11:06:28.167Z,32.90
2019-02-07T11:09:06.910Z,30.60
2019-02-07T11:11:36.812Z,30.27
2019-02-07T11:14:13.112Z,30.17
2019-02-07T11:16:45.939Z,30.60
2019-02-07T11:19:21.403Z,30.30
2019-02-07T11:21:50.381Z,31.80
2019-02-07T11:24:20.357Z,30.80
2019-02-07T11:26:50.256Z,32.07
2019-02-07T11:29:20.174Z,32.33
2019-02-07T11:32:02.378Z,33.30
2019-02-07T11:34:48.541Z,31.70
2019-02-07T11:37:27.883Z,30.27
2019-02-07T11:40:00.742Z,30.33
2019-02-07T11:42:48.559Z,32.00
2019-02-07T11:45:18.542Z,33.43
2019-02-07T11:47:48.604Z,32.67
2019-02-07T11:50:34.919Z,34.00
2019-02-07T11:53:11.323Z,31.63
2019-02-07T11:55:57.358Z,32.27
2019-02-07T11:58:43.749Z,31.97
2019-02-07T12:01:19.641Z,32.17
2019-02-07T12:04:01.779Z,33.20
2019-02-07T12:06:34.438Z,31.37
2019-02-07T12:09:07.407Z,32.63
2019-02-07T12:11:39.921Z,32.73
2019-02-07T12:14:09.819Z,33.00
2019-02-07T12:16:56.310Z,33.60
2019-02-07T12:19:35.340Z,33.57
2019-02-07T12:22:21.556Z,33.37
2019-02-07T12:25:07.842Z,31.97
2019-02-07T12:27:54.118Z,31.20
2019-02-07T12:30:42.244Z,32.67
2019-02-07T12:33:15.170Z,32.73
2019-02-07T12:35:45.214Z,30.20
2019-02-07T12:38:15.152Z,33.83
2019-02-07T12:40:54.011Z,33.20
2019-02-07T12:43:39.209Z,32.27
2019-02-07T12:46:15.386Z,32.70
2019-02-07T12:48:48.254Z,31.53
2019-02-07T12:51:29.998Z,33.07
2019-02-07T12:53:59.905Z,32.50
2019-02-07T12:56:29.811Z,32.67
2019-02-07T12:59:05.794Z,33.10
2019-02-07T13:01:35.710Z,32.27
2019-02-07T13:04:22.124Z,33.70
2019-02-07T13:06:52.531Z,32.03
2019-02-07T13:09:31.338Z,31.07
2019-02-07T13:12:17.244Z,33.77
2019-02-07T13:14:47.246Z,32.17
2019-02-07T13:17:17.186Z,32.73
2019-02-07T13:19:49.595Z,33.60
2019-02-07T13:22:25.057Z,34.63
2019-02-07T13:25:06.789Z,34.40
2019-02-07T13:27:36.749Z,34.13
2019-02-07T13:30:28.134Z,34.70
2019-02-07T13:33:09.618Z,35.90
2019-02-07T13:35:41.463Z,34.10
2019-02-07T13:38:11.412Z,35.53
2019-02-07T13:40:56.002Z,33.33
2019-02-07T13:46:17.859Z,35.47
2019-02-07T13:48:50.595Z,34.07
2019-02-07T13:51:23.637Z,35.60
2019-02-07T13:53:59.588Z,36.97
2019-02-07T13:56:29.785Z,36.23
2019-02-07T13:59:05.907Z,35.43
2019-02-07T14:01:38.594Z,37.83
2019-02-07T14:04:21.467Z,36.53
2019-02-07T14:07:00.530Z,36.53
2019-02-07T14:09:33.400Z,35.90
2019-02-07T14:12:03.324Z,35.90
2019-02-07T14:14:39.010Z,38.10
2019-02-07T14:17:12.025Z,39.10
2019-02-07T14:20:03.311Z,37.80
2019-02-07T14:22:40.837Z,37.87
2019-02-07T14:25:14.335Z,36.20
2019-02-07T14:28:00.486Z,39.20
2019-02-07T14:30:30.397Z,38.07
2019-02-07T14:33:13.847Z,40.60
2019-02-07T14:36:02.075Z,37.70
2019-02-07T14:38:41.437Z,40.40
2019-02-07T14:41:13.837Z,39.33
2019-02-07T14:43:43.987Z,39.53
2019-02-07T14:46:14.118Z,43.07
2019-02-07T14:48:45.146Z,41.60
2019-02-07T14:51:12.513Z,40.37
2019-02-07T14:53:40.734Z,41.50
2019-02-07T14:56:09.025Z,42.47
2019-02-07T14:58:40.275Z,43.23
2019-02-07T15:01:08.762Z,41.87
2019-02-07T15:03:37.049Z,39.43
2019-02-07T15:06:05.392Z,43.37
2019-02-07T15:08:34.542Z,43.33
2019-02-07T15:11:02.817Z,42.47
2019-02-07T15:13:31.141Z,42.63
2019-02-07T15:15:59.408Z,41.83
2019-02-07T15:18:28.768Z,42.93
2019-02-07T15:20:57.007Z,42.27
2019-02-07T15:23:25.303Z,43.90
2019-02-07T15:25:53.589Z,41.00
2019-02-07T15:28:21.844Z,43.63
2019-02-07T15:30:50.132Z,42.93
2019-02-07T15:33:18.872Z,42.83
2019-02-07T15:35:49.192Z,41.30
2019-02-07T15:38:17.474Z,41.93
2019-02-07T15:40:45.844Z,43.03
2019-02-07T15:43:14.102Z,43.30
2019-02-07T15:45:42.373Z,42.20
2019-02-07T15:48:10.659Z,42.00
2019-02-07T15:50:38.998Z,40.50
2019-02-07T15:53:07.326Z,39.83
2019-02-07T15:55:35.583Z,39.93
2019-02-07T15:58:04.287Z,42.73
2019-02-07T16:00:52.283Z,42.10
2019-02-07T16:03:37.757Z,42.10
2019-02-07T16:06:06.600Z,42.70
2019-02-07T16:08:35.026Z,40.10
2019-02-07T16:11:03.289Z,41.40
2019-02-07T16:13:32.367Z,38.47
2019-02-07T16:16:00.782Z,38.77
2019-02-07T16:18:29.172Z,40.20
2019-02-07T16:20:57.574Z,40.40
2019-02-07T16:23:26.023Z,40.93
2019-02-07T16:25:54.356Z,40.40
2019-02-07T16:28:22.690Z,39.60
2019-02-07T16:30:51.019Z,40.13
2019-02-07T16:33:19.422Z,41.47
2019-02-07T16:35:47.891Z,40.50
2019-02-07T16:38:16.216Z,41.00
2019-02-07T16:40:44.547Z,42.80
2019-02-07T16:43:14.451Z,39.93
2019-02-07T16:45:43.083Z,39.13
2019-02-07T16:48:11.336Z,39.93
2019-02-07T16:50:39.601Z,40.80
2019-02-07T16:53:07.864Z,38.33
2019-02-07T16:55:36.153Z,39.50
2019-02-07T16:58:04.560Z,41.03
2019-02-07T17:00:36.432Z,42.03
2019-02-07T17:03:04.871Z,39.60
2019-02-07T17:05:33.131Z,41.10
2019-02-07T17:08:01.414Z,38.07
2019-02-07T17:10:35.764Z,40.70
2019-02-07T17:13:05.626Z,37.57
2019-02-07T17:15:34.262Z,39.23
2019-02-07T17:18:02.527Z,39.77
2019-02-07T17:20:31.844Z,39.17
2019-02-07T17:23:00.102Z,40.20
2019-02-07T17:25:29.708Z,39.27
2019-02-07T17:27:57.963Z,38.67
2019-02-07T17:30:26.225Z,39.97
2019-02-07T17:32:54.568Z,38.87
2019-02-07T17:35:22.819Z,39.70
2019-02-07T17:37:51.177Z,38.87
2019-02-07T17:40:21.939Z,37.73
2019-02-07T17:42:50.267Z,40.33
2019-02-07T17:45:24.120Z,38.40
2019-02-07T17:47:52.377Z,37.70
2019-02-07T17:50:25.950Z,38.03
2019-02-07T17:52:54.452Z,40.50
2019-02-07T17:55:24.440Z,40.97
2019-02-07T17:57:52.715Z,40.20
2019-02-07T18:00:27.903Z,39.20
2019-02-07T18:02:56.172Z,40.70
2019-02-07T18:05:24.430Z,39.37
2019-02-07T18:07:52.693Z,40.57
2019-02-07T18:10:20.958Z,41.40
2019-02-07T18:12:49.224Z,41.07
2019-02-07T18:15:17.480Z,40.87
2019-02-07T18:17:46.745Z,39.77
2019-02-07T18:20:17.235Z,39.57
2019-02-07T18:22:45.580Z,40.47
2019-02-07T18:25:13.990Z,37.53
2019-02-07T18:27:42.238Z,38.63
2019-02-07T18:30:16.155Z,38.37
2019-02-07T18:32:44.840Z,40.47
2019-02-07T18:35:13.116Z,42.97
2019-02-07T18:37:41.584Z,41.93
2019-02-07T18:40:22.385Z,42.23
2019-02-07T18:42:50.667Z,44.93
2019-02-07T18:45:20.646Z,43.83
2019-02-07T18:47:49.039Z,44.73
2019-02-07T18:50:20.382Z,42.80
2019-02-07T18:52:50.611Z,43.57
2019-02-07T18:55:18.908Z,41.40
2019-02-07T18:57:47.217Z,43.03
2019-02-07T19:00:21.840Z,45.00
2019-02-07T19:02:50.177Z,48.33
2019-02-07T19:05:20.388Z,50.40
2019-02-07T19:07:48.685Z,55.27
2019-02-07T19:10:19.089Z,52.83
2019-02-07T19:12:47.486Z,51.20
2019-02-07T19:15:28.619Z,50.37
2019-02-07T19:17:56.888Z,48.57
2019-02-07T19:20:25.294Z,47.53
2019-02-07T19:22:53.555Z,50.70
2019-02-07T19:25:21.936Z,48.57
2019-02-07T19:27:50.323Z,49.27
2019-02-07T19:30:32.494Z,49.27
2019-02-07T19:33:00.824Z,46.73
2019-02-07T19:35:29.350Z,44.67
2019-02-07T19:37:58.270Z,46.27
2019-02-07T19:40:26.608Z,46.33
2019-02-07T19:42:55.349Z,56.10
2019-02-07T19:45:25.515Z,48.07
2019-02-07T19:47:53.847Z,50.57
2019-02-07T19:50:28.810Z,49.80
2019-02-07T19:52:57.203Z,49.20
2019-02-07T19:55:28.149Z,50.17
2019-02-07T19:57:57.246Z,50.43
2019-02-07T20:00:33.171Z,52.30
2019-02-07T20:03:01.646Z,50.17
2019-02-07T20:05:30.074Z,49.43
2019-02-07T20:07:58.419Z,51.00
2019-02-07T20:10:30.253Z,51.47
2019-02-07T20:13:00.689Z,50.23
2019-02-07T20:15:38.110Z,50.13
2019-02-07T20:18:09.518Z,53.50
2019-02-07T20:20:38.022Z,53.90
2019-02-07T20:23:06.487Z,51.63
2019-02-07T20:25:34.898Z,54.03
2019-02-07T20:28:03.342Z,55.43
2019-02-07T20:30:33.816Z,56.27
2019-02-07T20:33:04.455Z,54.47
2019-02-07T20:35:32.814Z,52.13
2019-02-07T20:38:01.134Z,54.43
2019-02-07T20:40:29.898Z,56.37
2019-02-07T20:42:58.291Z,56.77
2019-02-07T20:45:26.771Z,56.33
2019-02-07T20:47:55.198Z,54.87
2019-02-07T20:50:28.126Z,56.43
2019-02-07T20:52:56.612Z,54.27
2019-02-07T20:55:25.557Z,57.67
2019-02-07T20:57:54.860Z,52.57
2019-02-07T21:00:28.951Z,52.50
2019-02-07T21:02:58.890Z,52.20
2019-02-07T21:05:28.467Z,52.97
2019-02-07T21:07:56.829Z,52.63
2019-02-07T21:10:33.575Z,54.73
2019-02-07T21:13:02.007Z,56.33
2019-02-07T21:15:30.389Z,57.07
2019-02-07T21:17:58.763Z,56.57
2019-02-07T21:20:28.935Z,55.43
2019-02-07T21:22:57.873Z,60.10
2019-02-07T21:25:41.487Z,64.03
2019-02-07T21:28:10.245Z,60.80
2019-02-07T21:30:38.542Z,57.90
2019-02-07T21:33:06.985Z,64.37
2019-02-07T21:35:35.416Z,59.40
2019-02-07T21:38:04.152Z,60.33
2019-02-07T21:40:32.605Z,63.37
2019-02-07T21:43:01.185Z,65.23
2019-02-07T21:45:29.897Z,61.10
2019-02-07T21:48:02.395Z,60.47
2019-02-07T21:50:33.763Z,62.20
2019-02-07T21:53:02.028Z,60.07
2019-02-07T21:55:33.042Z,58.60
2019-02-07T21:58:01.398Z,58.47
2019-02-07T22:00:34.300Z,59.60
2019-02-07T22:03:02.657Z,60.20
2019-02-07T22:05:31.118Z,59.47
2019-02-07T22:08:02.243Z,59.37
2019-02-07T22:10:30.629Z,58.80
2019-02-07T22:12:58.867Z,58.33
2019-02-07T22:15:28.237Z,64.63
2019-02-07T22:17:56.498Z,65.97
2019-02-07T22:20:33.063Z,58.27
2019-02-07T22:23:01.419Z,56.30
2019-02-07T22:25:29.741Z,57.80
2019-02-07T22:27:58.050Z,58.30
2019-02-07T22:30:32.043Z,58.03
2019-02-07T22:33:00.397Z,59.83
2019-02-07T22:35:28.778Z,62.80
2019-02-07T22:37:57.123Z,65.97
2019-02-07T22:40:25.770Z,70.40
2019-02-07T22:42:54.077Z,75.10
2019-02-07T22:45:25.388Z,77.70
2019-02-07T22:47:53.653Z,72.97
2019-02-07T22:50:30.199Z,70.00
2019-02-07T22:53:00.645Z,65.20
2019-02-07T22:55:28.914Z,62.30
2019-02-07T22:57:57.317Z,59.90
2019-02-07T23:00:36.445Z,60.13
2019-02-07T23:03:17.007Z,62.67
2019-02-07T23:05:45.286Z,64.27
2019-02-07T23:08:13.641Z,60.17
2019-02-07T23:10:42.291Z,58.20
2019-02-07T23:13:10.762Z,62.47
2019-02-07T23:15:39.067Z,61.40
2019-02-07T23:18:09.130Z,60.43
2019-02-07T23:20:37.423Z,60.60
2019-02-07T23:23:08.022Z,63.37
2019-02-07T23:25:36.319Z,63.63
2019-02-07T23:28:05.047Z,62.47
2019-02-07T23:30:33.404Z,60.27
2019-02-07T23:33:01.813Z,61.00
2019-02-07T23:35:30.291Z,63.40
2019-02-07T23:37:58.551Z,65.53
2019-02-07T23:40:26.854Z,65.43
2019-02-07T23:42:55.422Z,60.57
2019-02-07T23:45:24.322Z,54.83
2019-02-07T23:47:52.687Z,54.10
2019-02-07T23:50:23.938Z,52.50
2019-02-07T23:52:52.249Z,51.53
2019-02-07T23:55:20.546Z,50.10
2019-02-07T23:57:48.906Z,47.90
